sensor_id;sensor_type;location;lat;lon;timestamp;P1;durP1;ratioP1;P2;durP2;ratioP2
33902;SDS011;20194;50.950;5.346;2022-08-19T00:01:32;21.65;;;19.45;;
33902;SDS011;20194;50.950;5.346;2022-08-19T00:04:01;23.20;;;20.50;;
33902;SDS011;20194;50.950;5.346;2022-08-19T00:06:29;21.15;;;18.83;;
33902;SDS011;20194;50.950;5.346;2022-08-19T00:08:56;21.02;;;18.70;;
33902;SDS011;20194;50.950;5.346;2022-08-19T00:11:25;20.45;;;18.33;;
33902;SDS011;20194;50.950;5.346;2022-08-19T00:13:53;19.52;;;17.50;;
33902;SDS011;20194;50.950;5.346;2022-08-19T00:16:19;21.15;;;18.67;;
33902;SDS011;20194;50.950;5.346;2022-08-19T00:18:46;21.75;;;19.15;;
33902;SDS011;20194;50.950;5.346;2022-08-19T00:21:13;20.70;;;18.50;;
33902;SDS011;20194;50.950;5.346;2022-08-19T00:23:38;23.88;;;18.63;;
33902;SDS011;20194;50.950;5.346;2022-08-19T00:26:05;19.90;;;17.85;;
33902;SDS011;20194;50.950;5.346;2022-08-19T00:28:31;26.48;;;19.50;;
33902;SDS011;20194;50.950;5.346;2022-08-19T00:30:58;22.38;;;18.13;;
33902;SDS011;20194;50.950;5.346;2022-08-19T00:33:25;22.58;;;20.13;;
33902;SDS011;20194;50.950;5.346;2022-08-19T00:35:50;25.92;;;19.50;;
33902;SDS011;20194;50.950;5.346;2022-08-19T00:38:16;22.02;;;19.05;;
33902;SDS011;20194;50.950;5.346;2022-08-19T00:40:43;25.23;;;19.90;;
33902;SDS011;20194;50.950;5.346;2022-08-19T00:43:12;22.85;;;20.42;;
33902;SDS011;20194;50.950;5.346;2022-08-19T00:45:39;23.45;;;20.95;;
33902;SDS011;20194;50.950;5.346;2022-08-19T00:48:09;23.98;;;21.38;;
33902;SDS011;20194;50.950;5.346;2022-08-19T00:50:35;26.40;;;20.48;;
33902;SDS011;20194;50.950;5.346;2022-08-19T00:53:01;27.92;;;22.17;;
33902;SDS011;20194;50.950;5.346;2022-08-19T00:55:28;28.38;;;22.50;;
33902;SDS011;20194;50.950;5.346;2022-08-19T00:57:59;24.83;;;21.30;;
33902;SDS011;20194;50.950;5.346;2022-08-19T01:00:29;28.13;;;22.02;;
33902;SDS011;20194;50.950;5.346;2022-08-19T01:02:56;24.77;;;21.17;;
33902;SDS011;20194;50.950;5.346;2022-08-19T01:05:26;25.95;;;23.15;;
33902;SDS011;20194;50.950;5.346;2022-08-19T01:07:54;28.88;;;22.50;;
33902;SDS011;20194;50.950;5.346;2022-08-19T01:10:23;26.42;;;22.52;;
33902;SDS011;20194;50.950;5.346;2022-08-19T01:12:51;30.98;;;22.05;;
33902;SDS011;20194;50.950;5.346;2022-08-19T01:15:20;28.63;;;22.75;;
33902;SDS011;20194;50.950;5.346;2022-08-19T01:17:50;26.90;;;22.25;;
33902;SDS011;20194;50.950;5.346;2022-08-19T01:20:19;24.50;;;21.08;;
33902;SDS011;20194;50.950;5.346;2022-08-19T01:22:54;26.63;;;21.58;;
33902;SDS011;20194;50.950;5.346;2022-08-19T01:25:24;29.63;;;21.45;;
33902;SDS011;20194;50.950;5.346;2022-08-19T01:27:54;32.60;;;22.05;;
33902;SDS011;20194;50.950;5.346;2022-08-19T01:30:28;29.65;;;22.73;;
33902;SDS011;20194;50.950;5.346;2022-08-19T01:32:56;29.52;;;21.95;;
33902;SDS011;20194;50.950;5.346;2022-08-19T01:35:27;30.60;;;23.13;;
33902;SDS011;20194;50.950;5.346;2022-08-19T01:38:04;32.63;;;23.13;;
33902;SDS011;20194;50.950;5.346;2022-08-19T01:40:33;31.23;;;24.42;;
33902;SDS011;20194;50.950;5.346;2022-08-19T01:43:01;28.02;;;22.63;;
33902;SDS011;20194;50.950;5.346;2022-08-19T01:45:28;32.65;;;24.75;;
33902;SDS011;20194;50.950;5.346;2022-08-19T01:47:56;32.63;;;24.25;;
33902;SDS011;20194;50.950;5.346;2022-08-19T01:50:21;31.60;;;24.90;;
33902;SDS011;20194;50.950;5.346;2022-08-19T01:52:47;34.28;;;23.05;;
33902;SDS011;20194;50.950;5.346;2022-08-19T01:55:14;37.50;;;24.80;;
33902;SDS011;20194;50.950;5.346;2022-08-19T01:57:43;31.42;;;23.60;;
33902;SDS011;20194;50.950;5.346;2022-08-19T02:00:13;31.80;;;23.75;;
33902;SDS011;20194;50.950;5.346;2022-08-19T02:02:42;33.10;;;24.77;;
33902;SDS011;20194;50.950;5.346;2022-08-19T02:05:08;33.85;;;25.60;;
33902;SDS011;20194;50.950;5.346;2022-08-19T02:07:34;39.65;;;26.00;;
33902;SDS011;20194;50.950;5.346;2022-08-19T02:10:06;35.40;;;26.05;;
33902;SDS011;20194;50.950;5.346;2022-08-19T02:12:34;35.10;;;27.15;;
33902;SDS011;20194;50.950;5.346;2022-08-19T02:15:00;39.38;;;26.30;;
33902;SDS011;20194;50.950;5.346;2022-08-19T02:17:27;35.28;;;26.85;;
33902;SDS011;20194;50.950;5.346;2022-08-19T02:19:54;39.40;;;26.77;;
33902;SDS011;20194;50.950;5.346;2022-08-19T02:22:21;35.75;;;25.73;;
33902;SDS011;20194;50.950;5.346;2022-08-19T02:24:48;38.22;;;27.63;;
33902;SDS011;20194;50.950;5.346;2022-08-19T02:27:14;41.90;;;28.05;;
33902;SDS011;20194;50.950;5.346;2022-08-19T02:29:40;40.20;;;27.70;;
33902;SDS011;20194;50.950;5.346;2022-08-19T02:32:06;41.95;;;29.13;;
33902;SDS011;20194;50.950;5.346;2022-08-19T02:34:32;40.65;;;27.17;;
33902;SDS011;20194;50.950;5.346;2022-08-19T02:36:58;38.85;;;27.67;;
33902;SDS011;20194;50.950;5.346;2022-08-19T02:39:24;43.78;;;28.33;;
33902;SDS011;20194;50.950;5.346;2022-08-19T02:41:51;38.90;;;27.83;;
33902;SDS011;20194;50.950;5.346;2022-08-19T02:44:18;43.15;;;28.58;;
33902;SDS011;20194;50.950;5.346;2022-08-19T02:46:45;39.40;;;27.23;;
33902;SDS011;20194;50.950;5.346;2022-08-19T02:49:12;41.00;;;26.58;;
33902;SDS011;20194;50.950;5.346;2022-08-19T02:51:41;41.10;;;26.92;;
33902;SDS011;20194;50.950;5.346;2022-08-19T02:54:09;39.33;;;28.80;;
33902;SDS011;20194;50.950;5.346;2022-08-19T02:56:37;41.47;;;29.05;;
33902;SDS011;20194;50.950;5.346;2022-08-19T02:59:04;47.75;;;28.38;;
33902;SDS011;20194;50.950;5.346;2022-08-19T03:01:36;40.22;;;28.17;;
33902;SDS011;20194;50.950;5.346;2022-08-19T03:04:03;46.50;;;30.42;;
33902;SDS011;20194;50.950;5.346;2022-08-19T03:06:30;46.05;;;30.92;;
33902;SDS011;20194;50.950;5.346;2022-08-19T03:08:56;45.13;;;30.67;;
33902;SDS011;20194;50.950;5.346;2022-08-19T03:11:24;41.85;;;30.00;;
33902;SDS011;20194;50.950;5.346;2022-08-19T03:13:51;49.10;;;30.83;;
33902;SDS011;20194;50.950;5.346;2022-08-19T03:16:18;48.40;;;31.67;;
33902;SDS011;20194;50.950;5.346;2022-08-19T03:18:45;46.03;;;31.75;;
33902;SDS011;20194;50.950;5.346;2022-08-19T03:21:15;45.08;;;31.15;;
33902;SDS011;20194;50.950;5.346;2022-08-19T03:23:43;54.92;;;33.25;;
33902;SDS011;20194;50.950;5.346;2022-08-19T03:26:09;47.70;;;32.03;;
33902;SDS011;20194;50.950;5.346;2022-08-19T03:28:34;49.00;;;32.40;;
33902;SDS011;20194;50.950;5.346;2022-08-19T03:31:05;54.08;;;32.28;;
33902;SDS011;20194;50.950;5.346;2022-08-19T03:33:34;47.90;;;31.40;;
33902;SDS011;20194;50.950;5.346;2022-08-19T03:36:01;51.42;;;31.15;;
33902;SDS011;20194;50.950;5.346;2022-08-19T03:38:39;47.60;;;31.73;;
33902;SDS011;20194;50.950;5.346;2022-08-19T03:41:08;49.47;;;32.65;;
33902;SDS011;20194;50.950;5.346;2022-08-19T03:43:37;48.17;;;32.35;;
33902;SDS011;20194;50.950;5.346;2022-08-19T03:46:05;53.10;;;34.35;;
33902;SDS011;20194;50.950;5.346;2022-08-19T03:48:34;54.33;;;32.00;;
33902;SDS011;20194;50.950;5.346;2022-08-19T03:51:01;48.42;;;31.38;;
33902;SDS011;20194;50.950;5.346;2022-08-19T03:53:27;48.60;;;30.58;;
33902;SDS011;20194;50.950;5.346;2022-08-19T03:55:54;53.08;;;33.45;;
33902;SDS011;20194;50.950;5.346;2022-08-19T03:58:21;55.95;;;34.17;;
33902;SDS011;20194;50.950;5.346;2022-08-19T04:00:47;59.15;;;33.90;;
33902;SDS011;20194;50.950;5.346;2022-08-19T04:03:14;56.88;;;33.67;;
33902;SDS011;20194;50.950;5.346;2022-08-19T04:05:40;56.53;;;35.08;;
33902;SDS011;20194;50.950;5.346;2022-08-19T04:08:05;54.38;;;35.05;;
33902;SDS011;20194;50.950;5.346;2022-08-19T04:10:38;63.28;;;35.55;;
33902;SDS011;20194;50.950;5.346;2022-08-19T04:13:05;59.85;;;35.22;;
33902;SDS011;20194;50.950;5.346;2022-08-19T04:15:32;59.35;;;35.38;;
33902;SDS011;20194;50.950;5.346;2022-08-19T04:18:04;57.78;;;36.22;;
33902;SDS011;20194;50.950;5.346;2022-08-19T04:20:33;58.22;;;35.60;;
33902;SDS011;20194;50.950;5.346;2022-08-19T04:23:09;61.28;;;35.55;;
33902;SDS011;20194;50.950;5.346;2022-08-19T04:25:36;58.67;;;36.55;;
33902;SDS011;20194;50.950;5.346;2022-08-19T04:28:07;58.35;;;35.88;;
33902;SDS011;20194;50.950;5.346;2022-08-19T04:31:11;59.72;;;36.03;;
33902;SDS011;20194;50.950;5.346;2022-08-19T04:33:26;61.85;;;36.85;;
33902;SDS011;20194;50.950;5.346;2022-08-19T04:35:53;65.93;;;39.25;;
33902;SDS011;20194;50.950;5.346;2022-08-19T04:38:19;61.60;;;37.72;;
33902;SDS011;20194;50.950;5.346;2022-08-19T04:40:48;65.25;;;40.03;;
33902;SDS011;20194;50.950;5.346;2022-08-19T04:43:35;70.10;;;36.95;;
33902;SDS011;20194;50.950;5.346;2022-08-19T04:46:09;67.53;;;37.65;;
33902;SDS011;20194;50.950;5.346;2022-08-19T04:48:36;62.05;;;38.67;;
33902;SDS011;20194;50.950;5.346;2022-08-19T04:51:06;61.00;;;36.40;;
33902;SDS011;20194;50.950;5.346;2022-08-19T04:53:34;64.22;;;38.38;;
33902;SDS011;20194;50.950;5.346;2022-08-19T04:56:06;60.83;;;34.90;;
33902;SDS011;20194;50.950;5.346;2022-08-19T04:58:32;68.03;;;38.33;;
33902;SDS011;20194;50.950;5.346;2022-08-19T05:00:58;61.92;;;37.45;;
33902;SDS011;20194;50.950;5.346;2022-08-19T05:03:27;62.78;;;37.75;;
33902;SDS011;20194;50.950;5.346;2022-08-19T05:05:56;60.55;;;34.80;;
33902;SDS011;20194;50.950;5.346;2022-08-19T05:08:22;62.78;;;37.55;;
33902;SDS011;20194;50.950;5.346;2022-08-19T05:10:48;63.97;;;37.25;;
33902;SDS011;20194;50.950;5.346;2022-08-19T05:13:16;58.20;;;35.85;;
33902;SDS011;20194;50.950;5.346;2022-08-19T05:15:43;63.55;;;37.72;;
33902;SDS011;20194;50.950;5.346;2022-08-19T05:18:09;69.80;;;38.75;;
33902;SDS011;20194;50.950;5.346;2022-08-19T05:20:54;64.72;;;38.28;;
33902;SDS011;20194;50.950;5.346;2022-08-19T05:23:39;73.38;;;40.72;;
33902;SDS011;20194;50.950;5.346;2022-08-19T05:26:06;79.95;;;41.90;;
33902;SDS011;20194;50.950;5.346;2022-08-19T05:28:31;73.32;;;41.72;;
33902;SDS011;20194;50.950;5.346;2022-08-19T05:30:57;85.68;;;45.05;;
33902;SDS011;20194;50.950;5.346;2022-08-19T05:33:23;85.03;;;44.63;;
33902;SDS011;20194;50.950;5.346;2022-08-19T05:35:49;84.10;;;45.67;;
33902;SDS011;20194;50.950;5.346;2022-08-19T05:38:18;88.60;;;45.33;;
33902;SDS011;20194;50.950;5.346;2022-08-19T05:40:43;86.38;;;45.13;;
33902;SDS011;20194;50.950;5.346;2022-08-19T05:43:13;81.07;;;45.75;;
33902;SDS011;20194;50.950;5.346;2022-08-19T05:45:43;95.53;;;47.45;;
33902;SDS011;20194;50.950;5.346;2022-08-19T05:48:09;85.57;;;43.65;;
33902;SDS011;20194;50.950;5.346;2022-08-19T05:50:37;79.85;;;44.75;;
33902;SDS011;20194;50.950;5.346;2022-08-19T05:53:04;81.80;;;46.60;;
33902;SDS011;20194;50.950;5.346;2022-08-19T05:55:30;73.43;;;43.58;;
33902;SDS011;20194;50.950;5.346;2022-08-19T05:57:56;82.20;;;44.20;;
33902;SDS011;20194;50.950;5.346;2022-08-19T06:00:22;74.60;;;43.92;;
33902;SDS011;20194;50.950;5.346;2022-08-19T06:02:49;82.85;;;43.40;;
33902;SDS011;20194;50.950;5.346;2022-08-19T06:05:16;74.45;;;42.90;;
33902;SDS011;20194;50.950;5.346;2022-08-19T06:07:41;72.13;;;40.90;;
33902;SDS011;20194;50.950;5.346;2022-08-19T06:10:08;75.60;;;42.03;;
33902;SDS011;20194;50.950;5.346;2022-08-19T06:12:36;76.82;;;42.40;;
33902;SDS011;20194;50.950;5.346;2022-08-19T06:15:05;67.10;;;38.15;;
33902;SDS011;20194;50.950;5.346;2022-08-19T06:17:33;69.93;;;38.72;;
33902;SDS011;20194;50.950;5.346;2022-08-19T06:20:00;63.30;;;37.25;;
33902;SDS011;20194;50.950;5.346;2022-08-19T06:22:27;64.85;;;36.55;;
33902;SDS011;20194;50.950;5.346;2022-08-19T06:24:53;67.40;;;36.50;;
33902;SDS011;20194;50.950;5.346;2022-08-19T06:27:20;63.40;;;34.90;;
33902;SDS011;20194;50.950;5.346;2022-08-19T06:29:46;63.22;;;33.80;;
33902;SDS011;20194;50.950;5.346;2022-08-19T06:32:13;58.22;;;33.58;;
33902;SDS011;20194;50.950;5.346;2022-08-19T06:34:41;58.50;;;34.75;;
33902;SDS011;20194;50.950;5.346;2022-08-19T06:37:07;63.88;;;35.40;;
33902;SDS011;20194;50.950;5.346;2022-08-19T06:39:34;57.47;;;34.65;;
33902;SDS011;20194;50.950;5.346;2022-08-19T06:42:04;52.15;;;31.38;;
33902;SDS011;20194;50.950;5.346;2022-08-19T06:44:33;54.05;;;32.03;;
33902;SDS011;20194;50.950;5.346;2022-08-19T06:47:05;52.72;;;30.25;;
33902;SDS011;20194;50.950;5.346;2022-08-19T06:49:32;52.00;;;29.88;;
33902;SDS011;20194;50.950;5.346;2022-08-19T06:51:58;53.80;;;31.00;;
33902;SDS011;20194;50.950;5.346;2022-08-19T06:54:25;45.30;;;26.65;;
33902;SDS011;20194;50.950;5.346;2022-08-19T06:56:53;51.72;;;27.50;;
33902;SDS011;20194;50.950;5.346;2022-08-19T06:59:20;51.05;;;28.70;;
33902;SDS011;20194;50.950;5.346;2022-08-19T07:01:51;48.58;;;29.20;;
33902;SDS011;20194;50.950;5.346;2022-08-19T07:04:20;46.28;;;28.80;;
33902;SDS011;20194;50.950;5.346;2022-08-19T07:06:47;48.20;;;27.50;;
33902;SDS011;20194;50.950;5.346;2022-08-19T07:09:13;49.30;;;26.55;;
33902;SDS011;20194;50.950;5.346;2022-08-19T07:11:43;48.28;;;26.08;;
33902;SDS011;20194;50.950;5.346;2022-08-19T07:14:10;42.10;;;26.17;;
33902;SDS011;20194;50.950;5.346;2022-08-19T07:16:37;44.40;;;25.42;;
33902;SDS011;20194;50.950;5.346;2022-08-19T07:19:02;38.17;;;22.63;;
33902;SDS011;20194;50.950;5.346;2022-08-19T07:21:28;41.63;;;23.77;;
33902;SDS011;20194;50.950;5.346;2022-08-19T07:23:55;36.28;;;22.60;;
33902;SDS011;20194;50.950;5.346;2022-08-19T07:26:28;37.13;;;21.88;;
33902;SDS011;20194;50.950;5.346;2022-08-19T07:28:57;38.33;;;21.80;;
33902;SDS011;20194;50.950;5.346;2022-08-19T07:31:27;37.83;;;20.23;;
33902;SDS011;20194;50.950;5.346;2022-08-19T07:33:53;33.33;;;20.40;;
33902;SDS011;20194;50.950;5.346;2022-08-19T07:36:23;40.67;;;20.13;;
33902;SDS011;20194;50.950;5.346;2022-08-19T07:38:53;34.28;;;17.77;;
33902;SDS011;20194;50.950;5.346;2022-08-19T07:41:23;33.15;;;19.23;;
33902;SDS011;20194;50.950;5.346;2022-08-19T07:43:50;33.25;;;17.77;;
33902;SDS011;20194;50.950;5.346;2022-08-19T07:46:18;29.30;;;16.42;;
33902;SDS011;20194;50.950;5.346;2022-08-19T07:48:46;37.22;;;19.67;;
33902;SDS011;20194;50.950;5.346;2022-08-19T07:51:14;35.25;;;16.38;;
33902;SDS011;20194;50.950;5.346;2022-08-19T07:53:42;28.05;;;15.60;;
33902;SDS011;20194;50.950;5.346;2022-08-19T07:56:09;31.52;;;15.40;;
33902;SDS011;20194;50.950;5.346;2022-08-19T07:58:38;27.80;;;15.25;;
33902;SDS011;20194;50.950;5.346;2022-08-19T08:01:09;30.17;;;16.55;;
33902;SDS011;20194;50.950;5.346;2022-08-19T08:03:41;28.58;;;15.77;;
33902;SDS011;20194;50.950;5.346;2022-08-19T08:06:34;28.98;;;15.43;;
33902;SDS011;20194;50.950;5.346;2022-08-19T08:09:21;33.08;;;17.00;;
33902;SDS011;20194;50.950;5.346;2022-08-19T08:11:51;30.58;;;16.30;;
33902;SDS011;20194;50.950;5.346;2022-08-19T08:14:21;34.03;;;17.17;;
33902;SDS011;20194;50.950;5.346;2022-08-19T08:16:49;27.92;;;16.77;;
33902;SDS011;20194;50.950;5.346;2022-08-19T08:19:16;33.65;;;17.35;;
33902;SDS011;20194;50.950;5.346;2022-08-19T08:21:48;31.15;;;18.23;;
33902;SDS011;20194;50.950;5.346;2022-08-19T08:24:14;29.85;;;16.80;;
33902;SDS011;20194;50.950;5.346;2022-08-19T08:26:41;31.00;;;16.85;;
33902;SDS011;20194;50.950;5.346;2022-08-19T08:29:08;31.92;;;17.02;;
33902;SDS011;20194;50.950;5.346;2022-08-19T08:31:37;25.60;;;15.00;;
33902;SDS011;20194;50.950;5.346;2022-08-19T08:34:08;25.63;;;15.15;;
33902;SDS011;20194;50.950;5.346;2022-08-19T08:36:38;25.23;;;14.10;;
33902;SDS011;20194;50.950;5.346;2022-08-19T08:41:43;27.02;;;14.27;;
33902;SDS011;20194;50.950;5.346;2022-08-19T08:44:16;29.73;;;16.02;;
33902;SDS011;20194;50.950;5.346;2022-08-19T08:46:47;26.05;;;14.75;;
33902;SDS011;20194;50.950;5.346;2022-08-19T08:49:31;22.95;;;14.85;;
33902;SDS011;20194;50.950;5.346;2022-08-19T08:54:30;25.23;;;12.93;;
33902;SDS011;20194;50.950;5.346;2022-08-19T08:56:59;17.77;;;11.82;;
33902;SDS011;20194;50.950;5.346;2022-08-19T08:59:31;27.02;;;15.00;;
33902;SDS011;20194;50.950;5.346;2022-08-19T09:02:01;21.58;;;12.80;;
33902;SDS011;20194;50.950;5.346;2022-08-19T09:04:27;27.35;;;11.98;;
33902;SDS011;20194;50.950;5.346;2022-08-19T09:09:27;18.27;;;10.73;;
33902;SDS011;20194;50.950;5.346;2022-08-19T09:12:25;14.07;;;10.23;;
33902;SDS011;20194;50.950;5.346;2022-08-19T09:15:12;18.40;;;9.93;;
33902;SDS011;20194;50.950;5.346;2022-08-19T09:17:39;14.38;;;9.57;;
33902;SDS011;20194;50.950;5.346;2022-08-19T09:22:41;14.43;;;8.52;;
33902;SDS011;20194;50.950;5.346;2022-08-19T09:25:12;19.90;;;9.57;;
33902;SDS011;20194;50.950;5.346;2022-08-19T09:27:40;16.77;;;8.27;;
33902;SDS011;20194;50.950;5.346;2022-08-19T09:30:07;16.77;;;8.18;;
33902;SDS011;20194;50.950;5.346;2022-08-19T09:32:35;23.30;;;9.43;;
33902;SDS011;20194;50.950;5.346;2022-08-19T09:35:02;16.23;;;8.68;;
33902;SDS011;20194;50.950;5.346;2022-08-19T09:37:28;12.25;;;7.15;;
33902;SDS011;20194;50.950;5.346;2022-08-19T09:39:53;14.70;;;8.38;;
33902;SDS011;20194;50.950;5.346;2022-08-19T09:42:20;14.27;;;8.32;;
33902;SDS011;20194;50.950;5.346;2022-08-19T09:44:46;11.02;;;6.70;;
33902;SDS011;20194;50.950;5.346;2022-08-19T09:47:12;15.13;;;6.47;;
33902;SDS011;20194;50.950;5.346;2022-08-19T09:49:39;9.32;;;5.93;;
33902;SDS011;20194;50.950;5.346;2022-08-19T09:52:08;11.35;;;6.38;;
33902;SDS011;20194;50.950;5.346;2022-08-19T09:54:35;14.95;;;7.47;;
33902;SDS011;20194;50.950;5.346;2022-08-19T09:57:02;12.10;;;5.55;;
33902;SDS011;20194;50.950;5.346;2022-08-19T09:59:28;9.32;;;5.57;;
33902;SDS011;20194;50.950;5.346;2022-08-19T10:01:55;9.57;;;6.13;;
33902;SDS011;20194;50.950;5.346;2022-08-19T10:04:21;9.07;;;4.20;;
33902;SDS011;20194;50.950;5.346;2022-08-19T10:06:47;7.00;;;3.58;;
33902;SDS011;20194;50.950;5.346;2022-08-19T10:09:15;5.45;;;4.05;;
33902;SDS011;20194;50.950;5.346;2022-08-19T10:11:42;9.68;;;4.30;;
33902;SDS011;20194;50.950;5.346;2022-08-19T10:14:14;7.32;;;4.82;;
33902;SDS011;20194;50.950;5.346;2022-08-19T10:16:41;8.68;;;5.07;;
33902;SDS011;20194;50.950;5.346;2022-08-19T10:19:07;7.05;;;4.13;;
33902;SDS011;20194;50.950;5.346;2022-08-19T10:21:34;9.18;;;4.40;;
33902;SDS011;20194;50.950;5.346;2022-08-19T10:24:02;8.35;;;4.38;;
33902;SDS011;20194;50.950;5.346;2022-08-19T10:26:30;10.48;;;4.35;;
33902;SDS011;20194;50.950;5.346;2022-08-19T10:29:02;8.25;;;5.07;;
33902;SDS011;20194;50.950;5.346;2022-08-19T10:31:30;9.23;;;4.40;;
33902;SDS011;20194;50.950;5.346;2022-08-19T10:33:57;6.97;;;3.75;;
33902;SDS011;20194;50.950;5.346;2022-08-19T10:36:25;9.68;;;4.63;;
33902;SDS011;20194;50.950;5.346;2022-08-19T10:38:56;10.57;;;4.50;;
33902;SDS011;20194;50.950;5.346;2022-08-19T10:41:31;8.40;;;4.85;;
33902;SDS011;20194;50.950;5.346;2022-08-19T10:44:00;8.02;;;4.47;;
33902;SDS011;20194;50.950;5.346;2022-08-19T10:46:28;10.20;;;4.25;;
33902;SDS011;20194;50.950;5.346;2022-08-19T10:48:57;6.30;;;4.40;;
33902;SDS011;20194;50.950;5.346;2022-08-19T10:51:27;6.75;;;3.95;;
33902;SDS011;20194;50.950;5.346;2022-08-19T10:54:11;7.65;;;4.32;;
33902;SDS011;20194;50.950;5.346;2022-08-19T10:56:37;9.32;;;5.25;;
33902;SDS011;20194;50.950;5.346;2022-08-19T11:01:49;9.80;;;5.00;;
33902;SDS011;20194;50.950;5.346;2022-08-19T11:04:16;8.85;;;4.40;;
33902;SDS011;20194;50.950;5.346;2022-08-19T11:06:46;11.00;;;4.70;;
33902;SDS011;20194;50.950;5.346;2022-08-19T11:09:14;8.15;;;3.95;;
33902;SDS011;20194;50.950;5.346;2022-08-19T11:11:41;5.05;;;3.55;;
33902;SDS011;20194;50.950;5.346;2022-08-19T11:14:09;8.15;;;4.25;;
33902;SDS011;20194;50.950;5.346;2022-08-19T11:16:36;6.60;;;4.10;;
33902;SDS011;20194;50.950;5.346;2022-08-19T11:19:06;5.82;;;3.80;;
33902;SDS011;20194;50.950;5.346;2022-08-19T11:21:34;8.18;;;4.40;;
33902;SDS011;20194;50.950;5.346;2022-08-19T11:24:06;8.32;;;3.63;;
33902;SDS011;20194;50.950;5.346;2022-08-19T11:26:34;6.25;;;3.95;;
33902;SDS011;20194;50.950;5.346;2022-08-19T11:29:03;8.20;;;4.72;;
33902;SDS011;20194;50.950;5.346;2022-08-19T11:31:31;5.93;;;3.65;;
33902;SDS011;20194;50.950;5.346;2022-08-19T11:34:01;5.93;;;3.97;;
33902;SDS011;20194;50.950;5.346;2022-08-19T11:36:29;7.10;;;4.10;;
33902;SDS011;20194;50.950;5.346;2022-08-19T11:38:56;5.95;;;4.00;;
33902;SDS011;20194;50.950;5.346;2022-08-19T11:41:22;8.35;;;3.88;;
33902;SDS011;20194;50.950;5.346;2022-08-19T11:43:48;6.47;;;4.25;;
33902;SDS011;20194;50.950;5.346;2022-08-19T11:46:15;7.57;;;3.97;;
33902;SDS011;20194;50.950;5.346;2022-08-19T11:48:42;8.32;;;4.35;;
33902;SDS011;20194;50.950;5.346;2022-08-19T11:51:10;8.00;;;4.18;;
33902;SDS011;20194;50.950;5.346;2022-08-19T11:53:38;7.88;;;4.40;;
33902;SDS011;20194;50.950;5.346;2022-08-19T11:56:05;7.05;;;4.40;;
33902;SDS011;20194;50.950;5.346;2022-08-19T11:58:32;8.98;;;4.35;;
33902;SDS011;20194;50.950;5.346;2022-08-19T12:00:59;9.88;;;4.05;;
33902;SDS011;20194;50.950;5.346;2022-08-19T12:03:25;10.00;;;4.40;;
33902;SDS011;20194;50.950;5.346;2022-08-19T12:05:51;4.63;;;3.15;;
33902;SDS011;20194;50.950;5.346;2022-08-19T12:08:17;7.30;;;3.60;;
33902;SDS011;20194;50.950;5.346;2022-08-19T12:10:43;6.07;;;3.50;;
33902;SDS011;20194;50.950;5.346;2022-08-19T12:13:10;6.22;;;3.50;;
33902;SDS011;20194;50.950;5.346;2022-08-19T12:15:39;7.45;;;3.83;;
33902;SDS011;20194;50.950;5.346;2022-08-19T12:18:05;8.82;;;3.30;;
33902;SDS011;20194;50.950;5.346;2022-08-19T12:20:34;7.78;;;3.97;;
33902;SDS011;20194;50.950;5.346;2022-08-19T12:23:02;8.38;;;4.20;;
33902;SDS011;20194;50.950;5.346;2022-08-19T12:25:29;7.40;;;3.38;;
33902;SDS011;20194;50.950;5.346;2022-08-19T12:27:55;5.43;;;3.95;;
33902;SDS011;20194;50.950;5.346;2022-08-19T12:30:22;7.38;;;3.75;;
33902;SDS011;20194;50.950;5.346;2022-08-19T12:32:47;4.30;;;3.22;;
33902;SDS011;20194;50.950;5.346;2022-08-19T12:35:13;7.07;;;4.18;;
33902;SDS011;20194;50.950;5.346;2022-08-19T12:37:39;7.47;;;4.28;;
33902;SDS011;20194;50.950;5.346;2022-08-19T12:40:07;7.68;;;4.60;;
33902;SDS011;20194;50.950;5.346;2022-08-19T12:42:34;5.72;;;3.15;;
33902;SDS011;20194;50.950;5.346;2022-08-19T12:44:59;7.10;;;4.18;;
33902;SDS011;20194;50.950;5.346;2022-08-19T12:47:25;7.30;;;4.22;;
33902;SDS011;20194;50.950;5.346;2022-08-19T12:49:51;8.13;;;4.22;;
33902;SDS011;20194;50.950;5.346;2022-08-19T12:52:17;5.05;;;3.75;;
33902;SDS011;20194;50.950;5.346;2022-08-19T12:54:46;6.80;;;3.00;;
33902;SDS011;20194;50.950;5.346;2022-08-19T12:57:12;6.53;;;3.00;;
33902;SDS011;20194;50.950;5.346;2022-08-19T12:59:38;5.22;;;2.90;;
33902;SDS011;20194;50.950;5.346;2022-08-19T13:02:05;6.07;;;3.05;;
33902;SDS011;20194;50.950;5.346;2022-08-19T13:04:32;7.72;;;3.03;;
33902;SDS011;20194;50.950;5.346;2022-08-19T13:07:05;4.82;;;3.15;;
33902;SDS011;20194;50.950;5.346;2022-08-19T13:09:32;7.60;;;3.30;;
33902;SDS011;20194;50.950;5.346;2022-08-19T13:11:58;11.20;;;3.58;;
33902;SDS011;20194;50.950;5.346;2022-08-19T13:14:27;6.40;;;4.03;;
33902;SDS011;20194;50.950;5.346;2022-08-19T13:16:53;4.75;;;3.33;;
33902;SDS011;20194;50.950;5.346;2022-08-19T13:19:19;7.72;;;3.55;;
33902;SDS011;20194;50.950;5.346;2022-08-19T13:21:49;3.45;;;2.78;;
33902;SDS011;20194;50.950;5.346;2022-08-19T13:24:16;4.60;;;3.00;;
33902;SDS011;20194;50.950;5.346;2022-08-19T13:26:42;5.40;;;3.15;;
33902;SDS011;20194;50.950;5.346;2022-08-19T13:29:08;6.93;;;3.28;;
33902;SDS011;20194;50.950;5.346;2022-08-19T13:31:52;7.57;;;3.35;;
33902;SDS011;20194;50.950;5.346;2022-08-19T13:34:36;5.60;;;2.60;;
33902;SDS011;20194;50.950;5.346;2022-08-19T13:37:02;5.20;;;2.85;;
33902;SDS011;20194;50.950;5.346;2022-08-19T13:39:32;4.97;;;3.03;;
33902;SDS011;20194;50.950;5.346;2022-08-19T13:41:59;7.47;;;2.85;;
33902;SDS011;20194;50.950;5.346;2022-08-19T13:44:26;5.13;;;2.47;;
33902;SDS011;20194;50.950;5.346;2022-08-19T13:46:54;5.03;;;3.05;;
33902;SDS011;20194;50.950;5.346;2022-08-19T13:49:25;3.83;;;2.65;;
33902;SDS011;20194;50.950;5.346;2022-08-19T13:51:55;7.63;;;2.95;;
33902;SDS011;20194;50.950;5.346;2022-08-19T13:54:20;13.95;;;3.03;;
33902;SDS011;20194;50.950;5.346;2022-08-19T13:56:46;3.70;;;2.83;;
33902;SDS011;20194;50.950;5.346;2022-08-19T13:59:12;7.10;;;2.92;;
33902;SDS011;20194;50.950;5.346;2022-08-19T14:01:39;3.25;;;2.75;;
33902;SDS011;20194;50.950;5.346;2022-08-19T14:04:07;4.10;;;2.58;;
33902;SDS011;20194;50.950;5.346;2022-08-19T14:06:33;7.38;;;3.00;;
33902;SDS011;20194;50.950;5.346;2022-08-19T14:08:59;3.10;;;2.80;;
33902;SDS011;20194;50.950;5.346;2022-08-19T14:11:27;5.13;;;2.58;;
33902;SDS011;20194;50.950;5.346;2022-08-19T14:13:53;4.30;;;2.67;;
33902;SDS011;20194;50.950;5.346;2022-08-19T14:16:19;3.65;;;2.53;;
33902;SDS011;20194;50.950;5.346;2022-08-19T14:18:45;2.92;;;2.30;;
33902;SDS011;20194;50.950;5.346;2022-08-19T14:21:17;2.85;;;2.22;;
33902;SDS011;20194;50.950;5.346;2022-08-19T14:23:45;4.45;;;2.97;;
33902;SDS011;20194;50.950;5.346;2022-08-19T14:26:13;2.83;;;2.53;;
33902;SDS011;20194;50.950;5.346;2022-08-19T14:28:40;4.82;;;2.88;;
33902;SDS011;20194;50.950;5.346;2022-08-19T14:31:07;4.70;;;3.22;;
33902;SDS011;20194;50.950;5.346;2022-08-19T14:33:34;2.58;;;2.28;;
33902;SDS011;20194;50.950;5.346;2022-08-19T14:35:59;3.53;;;3.10;;
33902;SDS011;20194;50.950;5.346;2022-08-19T14:38:25;4.38;;;2.88;;
33902;SDS011;20194;50.950;5.346;2022-08-19T14:40:51;3.03;;;2.50;;
33902;SDS011;20194;50.950;5.346;2022-08-19T14:43:18;4.78;;;3.17;;
33902;SDS011;20194;50.950;5.346;2022-08-19T14:45:44;4.47;;;2.60;;
33902;SDS011;20194;50.950;5.346;2022-08-19T14:48:10;3.58;;;2.75;;
33902;SDS011;20194;50.950;5.346;2022-08-19T14:50:36;3.92;;;2.60;;